Time;durP1;ratioP1;P1;durP2;ratioP2;P2;SDS_P1;SDS_P2;PMS_P1;PMS_P2;Temp;Humidity;BMP_temperature;BMP_pressure;BME280_temperature;BME280_humidity;BME280_pressure;Samples;Min_cycle;Max_cycle;Signal;HPM_P1;HPM_P2
2023/06/25 00:00:45;;;;;;;20.87;17.60;;;22.90;24.10;;;;;;5058024;28;20247;-85
2023/06/25 00:03:12;;;;;;;21.60;17.07;;;23.00;22.10;;;;;;5057805;28;20192;-82
2023/06/25 00:05:37;;;;;;;21.63;17.17;;;23.10;21.70;;;;;;5056999;28;20173;-83
2023/06/25 00:08:03;;;;;;;20.47;17.60;;;23.00;21.50;;;;;;5056563;28;20158;-86
2023/06/25 00:10:29;;;;;;;21.93;16.80;;;23.00;23.40;;;;;;5053496;28;20170;-85
2023/06/25 00:12:55;;;;;;;22.30;16.73;;;23.00;23.80;;;;;;5056002;28;20172;-85
2023/06/25 00:15:20;;;;;;;21.47;17.20;;;23.10;21.90;;;;;;5058036;28;20181;-81
2023/06/25 00:17:47;;;;;;;22.93;17.73;;;23.10;21.10;;;;;;5040461;28;20213;-80
2023/06/25 00:20:15;;;;;;;22.10;17.57;;;23.10;23.30;;;;;;5057738;28;20193;-83
2023/06/25 00:22:43;;;;;;;21.67;18.30;;;23.20;20.90;;;;;;5057870;28;20161;-84
2023/06/25 00:25:09;;;;;;;21.63;17.20;;;23.10;22.70;;;;;;5057814;28;20168;-85
2023/06/25 00:27:34;;;;;;;21.97;17.73;;;23.10;23.50;;;;;;5057590;28;20173;-85
2023/06/25 00:30:01;;;;;;;22.10;17.00;;;23.10;22.00;;;;;;5038804;28;20176;-84
2023/06/25 00:32:26;;;;;;;22.87;17.57;;;23.20;22.30;;;;;;5053254;28;20367;-87
2023/06/25 00:34:57;;;;;;;21.27;18.03;;;23.20;20.70;;;;;;5051396;28;20170;-85
2023/06/25 00:37:23;;;;;;;21.37;17.47;;;23.10;22.20;;;;;;5052319;28;20731;-87
2023/06/25 00:39:49;;;;;;;21.63;17.70;;;23.10;23.90;;;;;;5024190;28;20177;-88
2023/06/25 00:42:16;;;;;;;24.77;17.63;;;23.00;26.70;;;;;;5019679;28;20179;-87
2023/06/25 00:44:43;;;;;;;21.03;18.50;;;22.90;27.30;;;;;;5037117;28;20208;-89
2023/06/25 00:47:12;;;;;;;20.83;17.47;;;22.80;29.40;;;;;;5047941;28;20182;-87
2023/06/25 00:49:42;;;;;;;20.50;17.73;;;22.90;30.30;;;;;;5051166;28;20169;-87
2023/06/25 00:52:10;;;;;;;21.33;17.43;;;22.80;30.20;;;;;;5049768;28;20228;-87
2023/06/25 00:54:43;;;;;;;23.13;17.43;;;22.70;32.40;;;;;;5046453;28;20254;-87
2023/06/25 00:57:10;;;;;;;23.07;19.73;;;22.90;30.50;;;;;;5027552;28;20216;-86
2023/06/25 00:59:39;;;;;;;22.13;18.73;;;22.90;29.20;;;;;;5027512;28;20173;-88
2023/06/25 01:02:10;;;;;;;23.00;20.30;;;22.90;29.50;;;;;;5048926;28;20189;-87
2023/06/25 01:04:46;;;;;;;23.73;19.73;;;22.80;31.30;;;;;;5043754;28;20166;-84
2023/06/25 01:07:17;;;;;;;24.33;19.77;;;22.70;35.20;;;;;;5039990;28;20171;-86
2023/06/25 01:09:50;;;;;;;23.83;20.97;;;22.50;39.30;;;;;;5040156;28;20618;-86
2023/06/25 01:12:18;;;;;;;22.40;19.67;;;22.50;40.70;;;;;;5040666;28;20165;-88
2023/06/25 01:14:43;;;;;;;23.17;20.07;;;22.40;43.70;;;;;;5040273;28;20510;-86
2023/06/25 01:17:10;;;;;;;25.07;20.00;;;22.40;42.70;;;;;;5040157;28;20263;-86
2023/06/25 01:19:36;;;;;;;23.53;19.90;;;22.40;43.20;;;;;;5022361;28;20583;-88
2023/06/25 01:22:04;;;;;;;25.90;20.30;;;22.40;42.70;;;;;;5039991;28;20630;-86
2023/06/25 01:24:34;;;;;;;23.17;19.47;;;22.30;44.90;;;;;;5038855;28;20169;-85
2023/06/25 01:27:00;;;;;;;23.77;19.50;;;22.30;42.60;;;;;;5025622;28;20549;-85
2023/06/25 01:29:27;;;;;;;27.30;22.87;;;22.30;43.20;;;;;;5037871;28;20578;-86
2023/06/25 01:31:53;;;;;;;22.77;19.43;;;22.40;41.80;;;;;;5020704;28;20181;-88
2023/06/25 01:34:21;;;;;;;22.90;19.33;;;22.40;41.30;;;;;;5021912;28;20177;-84
2023/06/25 01:36:50;;;;;;;24.10;19.50;;;22.40;42.30;;;;;;5040696;28;20240;-85
2023/06/25 01:39:17;;;;;;;23.80;20.47;;;22.40;41.20;;;;;;5038724;28;20276;-86
2023/06/25 01:41:44;;;;;;;25.87;20.40;;;22.50;39.60;;;;;;5039271;28;20582;-87
2023/06/25 01:44:30;;;;;;;22.47;19.60;;;22.50;38.90;;;;;;5021224;28;20177;-87
2023/06/25 01:46:58;;;;;;;23.73;19.50;;;22.50;37.10;;;;;;5021133;28;20247;-87
2023/06/25 01:49:25;;;;;;;25.30;18.40;;;22.50;35.20;;;;;;5040765;28;20241;-87
2023/06/25 01:51:52;;;;;;;24.20;20.13;;;22.50;36.30;;;;;;5039974;28;20474;-87
2023/06/25 01:54:18;;;;;;;24.20;19.63;;;22.60;36.40;;;;;;5040609;28;20177;-85
2023/06/25 01:56:45;;;;;;;22.47;19.80;;;22.60;34.60;;;;;;5040065;28;20222;-85
2023/06/25 01:59:11;;;;;;;27.13;20.50;;;22.60;33.40;;;;;;5040910;28;20219;-85
2023/06/25 02:01:37;;;;;;;22.83;19.83;;;22.70;32.90;;;;;;5039549;28;20185;-87
2023/06/25 02:04:04;;;;;;;22.67;19.77;;;22.70;32.30;;;;;;5040616;28;20256;-86
2023/06/25 02:06:30;;;;;;;26.43;20.90;;;22.80;30.20;;;;;;5039993;28;20169;-87
2023/06/25 02:08:55;;;;;;;26.70;20.37;;;22.80;30.60;;;;;;5038335;28;20169;-86
2023/06/25 02:11:21;;;;;;;23.73;21.20;;;22.90;30.20;;;;;;5019409;28;20599;-87
2023/06/25 02:13:52;;;;;;;25.90;21.93;;;22.80;31.50;;;;;;5037725;28;20260;-86
2023/06/25 02:16:18;;;;;;;26.33;23.17;;;22.80;32.90;;;;;;5044121;28;20162;-82
2023/06/25 02:18:46;;;;;;;27.57;24.67;;;22.60;34.80;;;;;;5059892;28;20224;-83
2023/06/25 02:21:11;;;;;;;29.90;25.57;;;22.50;38.30;;;;;;5043267;28;20196;-82
2023/06/25 02:23:37;;;;;;;28.10;24.63;;;22.40;38.60;;;;;;5059879;28;20180;-82
2023/06/25 02:26:09;;;;;;;29.17;23.60;;;22.20;45.00;;;;;;5051795;28;20217;-85
2023/06/25 02:28:41;;;;;;;26.13;23.10;;;21.90;50.80;;;;;;5024248;28;20581;-87
2023/06/25 02:31:06;;;;;;;26.17;22.50;;;21.90;54.10;;;;;;5036690;28;20161;-85
2023/06/25 02:33:32;;;;;;;25.67;22.53;;;21.80;56.40;;;;;;5036435;28;20166;-89
2023/06/25 02:35:58;;;;;;;25.40;21.67;;;22.00;55.80;;;;;;5018484;28;20607;-84
2023/06/25 02:38:24;;;;;;;26.57;22.47;;;22.10;50.90;;;;;;5034736;28;20217;-82
2023/06/25 02:40:50;;;;;;;24.80;21.97;;;22.00;49.30;;;;;;5056020;28;20161;-83
2023/06/25 02:43:16;;;;;;;24.70;20.70;;;22.00;51.80;;;;;;5042904;28;20240;-82
2023/06/25 02:45:41;;;;;;;24.67;20.93;;;21.90;52.00;;;;;;5056127;28;20200;-81
2023/06/25 02:48:07;;;;;;;24.67;20.20;;;21.90;55.30;;;;;;5037164;28;20205;-82
2023/06/25 02:50:36;;;;;;;26.40;21.03;;;21.80;57.70;;;;;;5036827;28;20177;-85
2023/06/25 02:53:08;;;;;;;23.33;20.13;;;21.80;58.20;;;;;;5036489;28;20681;-86
2023/06/25 02:55:34;;;;;;;23.40;20.70;;;21.90;58.20;;;;;;5036717;28;20323;-87
2023/06/25 02:58:00;;;;;;;25.93;20.83;;;21.80;58.20;;;;;;5018165;28;20708;-86
2023/06/25 03:00:26;;;;;;;22.83;19.67;;;21.80;59.40;;;;;;5036081;28;20169;-87
2023/06/25 03:02:51;;;;;;;22.63;19.87;;;21.90;56.80;;;;;;5036416;28;20265;-87
2023/06/25 03:05:17;;;;;;;26.90;21.27;;;22.20;54.70;;;;;;5038628;28;20560;-87
2023/06/25 03:07:58;;;;;;;22.97;19.77;;;22.30;49.90;;;;;;5019447;28;20181;-85
2023/06/25 03:10:28;;;;;;;23.20;20.47;;;22.30;48.20;;;;;;5018338;28;20260;-87
2023/06/25 03:12:54;;;;;;;22.30;19.90;;;22.40;44.90;;;;;;5036766;28;20180;-87
2023/06/25 03:15:19;;;;;;;21.27;18.90;;;22.50;42.80;;;;;;5037105;28;20165;-85
2023/06/25 03:17:45;;;;;;;21.97;18.70;;;22.60;40.10;;;;;;5037470;28;20645;-86
2023/06/25 03:20:13;;;;;;;23.83;20.10;;;22.60;37.80;;;;;;5051497;28;20188;-84
2023/06/25 03:22:38;;;;;;;21.83;19.37;;;22.60;37.80;;;;;;5042237;28;20157;-86
2023/06/25 03:25:04;;;;;;;22.43;19.13;;;22.60;38.10;;;;;;5059022;28;20161;-85
2023/06/25 03:27:32;;;;;;;21.87;18.37;;;22.70;37.00;;;;;;5057879;28;20168;-85
2023/06/25 03:30:04;;;;;;;21.67;18.03;;;22.70;35.00;;;;;;5052968;28;20182;-87
2023/06/25 03:32:37;;;;;;;22.23;17.43;;;22.70;33.10;;;;;;5050520;28;20196;-86
2023/06/25 03:35:09;;;;;;;21.47;16.93;;;22.80;30.30;;;;;;5023675;28;20174;-87
2023/06/25 03:37:48;;;;;;;16.83;15.07;;;22.80;28.80;;;;;;5035668;28;20201;-86
2023/06/25 03:40:14;;;;;;;17.67;15.77;;;22.80;26.00;;;;;;5036029;28;20188;-88
2023/06/25 03:42:40;;;;;;;16.47;14.73;;;22.70;26.40;;;;;;5035457;28;20185;-84
2023/06/25 03:45:06;;;;;;;17.33;14.60;;;22.80;24.50;;;;;;5017796;28;20203;-86
2023/06/25 03:47:32;;;;;;;16.17;14.47;;;22.90;21.90;;;;;;5035036;28;20242;-87
2023/06/25 03:49:57;;;;;;;18.27;14.77;;;22.90;18.70;;;;;;5035136;28;20166;-87
2023/06/25 03:52:23;;;;;;;17.03;15.07;;;23.00;14.90;;;;;;5017526;28;20180;-85
2023/06/25 03:54:49;;;;;;;17.40;14.30;;;22.90;17.50;;;;;;5017137;28;20200;-86
2023/06/25 03:57:15;;;;;;;15.77;13.57;;;22.80;20.60;;;;;;5035032;28;20251;-86
2023/06/25 03:59:41;;;;;;;17.27;13.50;;;22.80;20.80;;;;;;5034655;28;20650;-86
2023/06/25 04:02:07;;;;;;;15.63;13.47;;;22.80;22.00;;;;;;5034844;28;20206;-88
2023/06/25 04:04:33;;;;;;;15.30;13.53;;;22.70;24.50;;;;;;5034949;28;20679;-86
2023/06/25 04:06:58;;;;;;;14.47;12.70;;;22.60;27.80;;;;;;5034949;28;20169;-87
2023/06/25 04:09:24;;;;;;;16.33;12.83;;;22.70;27.50;;;;;;5034776;28;20178;-86
2023/06/25 04:11:50;;;;;;;15.83;12.70;;;22.60;27.20;;;;;;5035917;28;20192;-85
2023/06/25 04:14:15;;;;;;;16.37;13.00;;;22.60;25.90;;;;;;5036759;28;20583;-87
2023/06/25 04:16:41;;;;;;;18.00;14.03;;;22.70;24.20;;;;;;5016832;28;20193;-87
2023/06/25 04:19:07;;;;;;;15.10;13.30;;;22.90;19.90;;;;;;5034400;28;20169;-86
2023/06/25 04:21:34;;;;;;;15.27;13.57;;;22.80;17.40;;;;;;5033152;28;20601;-86
2023/06/25 04:24:00;;;;;;;14.63;12.70;;;22.80;19.60;;;;;;5016288;28;20177;-87
2023/06/25 04:26:26;;;;;;;16.37;13.03;;;22.70;22.10;;;;;;5035621;28;20162;-83
2023/06/25 04:28:52;;;;;;;15.37;12.83;;;22.80;22.80;;;;;;5036736;28;20598;-87
2023/06/25 04:31:17;;;;;;;18.40;13.00;;;22.80;23.10;;;;;;5036726;28;20188;-87
2023/06/25 04:33:43;;;;;;;16.03;13.33;;;22.80;24.70;;;;;;5034351;28;20166;-86
2023/06/25 04:36:13;;;;;;;13.90;12.43;;;22.90;22.90;;;;;;5034472;28;20253;-86
2023/06/25 04:38:39;;;;;;;14.77;13.20;;;23.10;20.20;;;;;;5033167;28;20209;-84
2023/06/25 04:41:04;;;;;;;13.40;12.00;;;23.10;15.60;;;;;;5016934;28;20192;-85
2023/06/25 04:43:30;;;;;;;14.80;12.83;;;23.30;8.90;;;;;;5033572;28;20178;-85
2023/06/25 04:45:56;;;;;;;16.97;13.07;;;23.40;4.70;;;;;;5034270;28;20174;-85
2023/06/25 04:48:21;;;;;;;14.67;12.77;;;23.50;1.00;;;;;;5033536;28;20639;-87
2023/06/25 04:50:47;;;;;;;13.37;11.67;;;23.60;1.00;;;;;;5034196;28;20626;-85
2023/06/25 04:53:13;;;;;;;15.37;13.03;;;23.70;1.00;;;;;;5035900;28;20231;-84
2023/06/25 04:55:39;;;;;;;19.47;13.20;;;23.60;1.00;;;;;;5017985;28;20247;-86
2023/06/25 04:58:04;;;;;;;15.57;12.93;;;23.80;1.00;;;;;;5036279;28;20209;-86
2023/06/25 05:00:30;;;;;;;18.67;12.90;;;24.00;1.00;;;;;;5038399;28;20224;-85
2023/06/25 05:02:56;;;;;;;13.83;11.90;;;24.00;1.00;;;;;;5037089;28;20181;-85
2023/06/25 05:05:22;;;;;;;14.53;12.30;;;24.00;1.00;;;;;;5037602;28;20189;-85
2023/06/25 05:07:48;;;;;;;16.47;11.77;;;24.00;1.00;;;;;;5034866;28;20264;-85
2023/06/25 05:10:15;;;;;;;12.17;10.50;;;24.00;1.00;;;;;;5016757;28;20170;-87
2023/06/25 05:12:41;;;;;;;13.57;11.30;;;24.00;1.00;;;;;;5034718;28;20652;-86
2023/06/25 05:15:07;;;;;;;13.67;11.00;;;24.10;1.00;;;;;;5036752;28;20170;-86
2023/06/25 05:17:32;;;;;;;13.83;9.80;;;24.10;1.00;;;;;;5019524;28;20707;-87
2023/06/25 05:19:58;;;;;;;14.77;10.80;;;24.10;1.00;;;;;;5038353;28;20168;-85
2023/06/25 05:22:24;;;;;;;12.47;9.43;;;24.30;1.00;;;;;;5037348;28;20664;-86
2023/06/25 05:24:50;;;;;;;10.27;9.17;;;24.40;1.00;;;;;;5038223;28;20578;-86
2023/06/25 05:27:18;;;;;;;10.77;8.83;;;24.40;1.00;;;;;;5039009;28;20166;-86
2023/06/25 05:29:44;;;;;;;11.27;8.73;;;24.40;1.00;;;;;;5039110;28;20166;-86
2023/06/25 05:32:09;;;;;;;11.17;8.90;;;24.40;1.00;;;;;;5023250;28;20176;-87
2023/06/25 05:34:35;;;;;;;10.87;8.40;;;24.50;1.00;;;;;;5050212;28;20169;-80
2023/06/25 05:37:01;;;;;;;8.30;7.40;;;24.60;1.00;;;;;;5057013;28;20185;-82
2023/06/25 05:39:29;;;;;;;9.33;7.27;;;24.70;1.00;;;;;;5057412;28;20178;-83
2023/06/25 05:41:58;;;;;;;8.00;6.77;;;24.80;1.00;;;;;;5057569;28;20185;-80
2023/06/25 05:44:24;;;;;;;10.30;6.83;;;24.80;1.00;;;;;;5057770;28;20192;-81
2023/06/25 05:46:50;;;;;;;8.33;5.90;;;24.80;1.00;;;;;;5056003;28;20265;-85
2023/06/25 05:49:19;;;;;;;8.10;5.83;;;24.80;99.90;;;;;;5036250;28;20189;-86
2023/06/25 05:52:36;;;;;;;6.50;5.17;;;24.70;99.90;;;;;;5050209;28;20161;-86
2023/06/25 05:55:02;;;;;;;5.63;4.87;;;24.50;1.00;;;;;;5028048;28;20276;-85
2023/06/25 05:57:27;;;;;;;6.63;5.13;;;24.50;1.00;;;;;;5028208;28;20661;-86
2023/06/25 05:59:53;;;;;;;6.97;5.37;;;24.40;1.00;;;;;;5046060;28;20165;-86
2023/06/25 06:02:19;;;;;;;6.73;5.30;;;24.50;99.90;;;;;;5053753;28;20221;-81
2023/06/25 06:04:45;;;;;;;6.97;5.40;;;24.60;99.90;;;;;;5060961;28;20157;-83
2023/06/25 06:07:10;;;;;;;6.63;5.17;;;24.60;1.00;;;;;;5060704;28;20165;-83
2023/06/25 06:09:36;;;;;;;5.90;4.30;;;24.60;1.00;;;;;;5060821;28;20213;-84
2023/06/25 06:12:05;;;;;;;5.90;5.03;;;24.70;99.90;;;;;;5045562;28;20215;-89
2023/06/25 06:14:34;;;;;;;6.60;5.07;;;24.80;99.90;;;;;;5039398;28;20165;-86
2023/06/25 06:17:22;;;;;;;5.30;4.23;;;24.70;99.90;;;;;;5037168;28;20198;-86
2023/06/25 06:19:53;;;;;;;6.30;4.20;;;24.90;99.90;;;;;;5037530;28;20189;-86
2023/06/25 06:22:22;;;;;;;5.77;4.17;;;24.80;99.90;;;;;;5038330;28;20275;-87
2023/06/25 06:24:56;;;;;;;5.90;4.10;;;24.80;99.90;;;;;;5038920;28;20169;-85
2023/06/25 06:27:22;;;;;;;5.53;3.87;;;24.80;99.90;;;;;;5038770;28;20162;-87
2023/06/25 06:29:54;;;;;;;5.20;4.00;;;24.60;99.90;;;;;;5038832;28;20166;-86
2023/06/25 06:32:20;;;;;;;6.47;3.83;;;24.60;99.90;;;;;;5021459;28;20221;-88
2023/06/25 06:34:45;;;;;;;6.13;3.40;;;24.70;99.90;;;;;;5040613;28;20201;-87
2023/06/25 06:37:11;;;;;;;6.07;3.40;;;24.80;99.90;;;;;;5039388;28;20205;-88
2023/06/25 06:39:37;;;;;;;5.67;3.67;;;24.80;99.90;;;;;;5037287;28;20289;-87
2023/06/25 06:42:03;;;;;;;6.37;3.60;;;24.90;99.90;;;;;;5041406;28;20163;-87
2023/06/25 06:44:28;;;;;;;5.37;3.50;;;25.00;99.90;;;;;;5040204;28;20257;-87
2023/06/25 06:46:54;;;;;;;6.20;3.93;;;24.90;99.90;;;;;;5021694;28;20185;-87
2023/06/25 06:49:20;;;;;;;4.70;3.77;;;24.90;99.90;;;;;;5020930;28;20544;-86
2023/06/25 06:51:45;;;;;;;6.23;3.83;;;25.00;99.90;;;;;;5038632;28;20162;-87
2023/06/25 06:54:11;;;;;;;6.43;4.13;;;25.20;99.90;;;;;;5037845;28;20626;-87
2023/06/25 06:56:40;;;;;;;4.77;3.43;;;25.20;99.90;;;;;;5041638;28;20172;-87
2023/06/25 06:59:05;;;;;;;6.60;4.13;;;25.30;99.90;;;;;;5041993;28;20288;-87
2023/06/25 07:01:33;;;;;;;8.40;4.47;;;25.40;99.90;;;;;;5041397;28;20193;-86
2023/06/25 07:03:59;;;;;;;6.33;4.20;;;25.40;99.90;;;;;;5021147;28;20188;-87
2023/06/25 07:06:24;;;;;;;6.23;4.30;;;25.50;99.90;;;;;;5040221;28;20189;-86
2023/06/25 07:08:50;;;;;;;5.97;3.77;;;25.70;99.90;;;;;;5039537;28;20174;-88
2023/06/25 07:11:18;;;;;;;5.80;4.47;;;25.90;99.90;;;;;;5037969;28;20188;-87
2023/06/25 07:13:44;;;;;;;5.10;4.00;;;26.00;99.90;;;;;;5034203;28;20257;-88
2023/06/25 07:16:10;;;;;;;7.22;4.70;;;26.20;62.20;;;;;;5039513;28;20167;-87
2023/06/25 07:18:36;;;;;;;5.47;4.28;;;26.00;47.40;;;;;;5036815;28;20256;-84
2023/06/25 07:21:02;;;;;;;6.55;4.30;;;26.00;99.90;;;;;;5033626;28;20201;-86
2023/06/25 07:23:29;;;;;;;5.30;3.60;;;26.20;43.50;;;;;;5038654;28;20185;-83
2023/06/25 07:25:57;;;;;;;6.07;4.03;;;26.30;1.00;;;;;;5040413;28;20180;-86
2023/06/25 07:28:22;;;;;;;5.33;4.20;;;26.30;29.00;;;;;;5049244;28;20210;-87
2023/06/25 07:30:54;;;;;;;8.15;4.28;;;26.30;4.70;;;;;;5047761;28;20165;-87
2023/06/25 07:33:19;;;;;;;5.72;4.05;;;26.40;1.00;;;;;;5044440;28;20184;-86
2023/06/25 07:35:46;;;;;;;4.45;3.90;;;26.50;1.00;;;;;;5041578;28;20536;-84
2023/06/25 07:38:14;;;;;;;5.45;4.13;;;26.40;1.00;;;;;;5021756;28;20206;-87
2023/06/25 07:40:39;;;;;;;5.57;3.35;;;26.50;1.00;;;;;;5038194;28;20179;-85
2023/06/25 07:43:05;;;;;;;6.57;4.05;;;26.50;1.00;;;;;;5040929;28;20232;-87
2023/06/25 07:45:30;;;;;;;4.68;3.78;;;26.50;1.00;;;;;;5042919;28;20175;-87
2023/06/25 07:47:58;;;;;;;6.43;3.90;;;26.60;1.00;;;;;;5042551;28;20193;-87
2023/06/25 07:50:24;;;;;;;5.95;3.78;;;26.80;1.00;;;;;;5043910;28;20204;-85
2023/06/25 07:52:49;;;;;;;5.47;3.83;;;26.80;1.00;;;;;;5026421;28;20181;-85
2023/06/25 07:55:15;;;;;;;5.40;3.92;;;27.00;99.90;;;;;;5027724;28;20193;-85
2023/06/25 07:57:44;;;;;;;6.07;4.18;;;27.10;99.90;;;;;;5030886;28;20228;-85
2023/06/25 08:00:29;;;;;;;5.40;4.05;;;27.20;37.70;;;;;;5047424;28;20153;-85
2023/06/25 08:02:57;;;;;;;6.70;4.07;;;27.30;1.00;;;;;;5028102;28;20169;-84
2023/06/25 08:05:26;;;;;;;4.47;3.90;;;27.40;1.00;;;;;;5032305;28;20185;-85
2023/06/25 08:07:52;;;;;;;5.63;4.00;;;27.60;1.00;;;;;;5049275;28;20217;-88
2023/06/25 08:10:20;;;;;;;6.18;4.65;;;27.70;99.90;;;;;;5040730;28;20626;-86
2023/06/25 08:12:56;;;;;;;5.15;3.80;;;27.70;99.90;;;;;;5040484;28;20511;-85
2023/06/25 08:15:23;;;;;;;5.05;4.07;;;27.70;99.90;;;;;;5024785;28;20173;-87
2023/06/25 08:17:49;;;;;;;4.60;4.03;;;27.90;99.90;;;;;;5042945;28;20217;-86
2023/06/25 08:20:15;;;;;;;4.97;3.95;;;27.90;1.00;;;;;;5044585;28;20194;-87
2023/06/25 08:22:42;;;;;;;6.10;4.30;;;28.00;1.00;;;;;;5043187;28;20181;-88
2023/06/25 08:25:20;;;;;;;7.38;4.00;;;28.20;99.90;;;;;;5038769;28;20249;-85
2023/06/25 08:27:46;;;;;;;6.10;4.05;;;28.40;1.00;;;;;;5042496;28;20212;-86
2023/06/25 08:30:12;;;;;;;6.72;4.03;;;28.50;1.00;;;;;;5038694;28;20606;-87
2023/06/25 08:32:38;;;;;;;5.18;4.00;;;28.60;1.00;;;;;;5040634;28;20245;-85
2023/06/25 08:35:04;;;;;;;4.97;4.03;;;28.70;99.90;;;;;;5022201;28;20264;-87
2023/06/25 08:37:31;;;;;;;5.80;4.10;;;28.80;99.90;;;;;;5043013;28;20210;-87
2023/06/25 08:39:57;;;;;;;5.47;4.13;;;28.70;1.00;;;;;;5044587;28;20164;-87
2023/06/25 08:42:24;;;;;;;5.45;3.80;;;28.60;1.00;;;;;;5047570;28;20189;-86
2023/06/25 08:44:50;;;;;;;5.15;4.03;;;28.50;44.50;;;;;;5049265;28;20160;-87
2023/06/25 08:47:19;;;;;;;5.75;4.15;;;28.40;99.90;;;;;;5046684;28;20196;-88
2023/06/25 08:49:49;;;;;;;5.32;4.50;;;28.40;1.00;;;;;;5031398;28;20250;-87
2023/06/25 08:52:18;;;;;;;5.25;4.20;;;28.60;99.90;;;;;;5030095;28;20648;-89
2023/06/25 08:54:49;;;;;;;5.97;3.92;;;28.60;1.00;;;;;;5023533;28;20190;-90
2023/06/25 08:57:16;;;;;;;4.50;3.80;;;28.60;1.00;;;;;;5039510;28;20658;-84
2023/06/25 08:59:43;;;;;;;4.97;4.10;;;28.80;1.00;;;;;;5038056;28;20166;-88
2023/06/25 09:02:09;;;;;;;6.15;4.60;;;28.80;99.90;;;;;;5057294;28;20158;-85
2023/06/25 09:04:37;;;;;;;7.28;4.05;;;28.80;99.90;;;;;;5057221;28;20230;-80
2023/06/25 09:07:16;;;;;;;5.60;4.35;;;28.90;1.00;;;;;;5039639;28;20178;-85
2023/06/25 09:09:52;;;;;;;5.30;4.10;;;28.90;1.00;;;;;;5042461;28;20157;-86
2023/06/25 09:12:27;;;;;;;5.28;4.00;;;28.90;99.90;;;;;;5038800;28;20149;-87
2023/06/25 09:14:56;;;;;;;4.63;4.05;;;29.10;99.90;;;;;;5040651;28;20216;-86
2023/06/25 09:17:23;;;;;;;6.00;4.18;;;29.10;99.90;;;;;;5020384;28;20638;-87
2023/06/25 09:19:49;;;;;;;4.30;3.90;;;29.20;99.90;;;;;;5019279;28;20533;-88
2023/06/25 09:22:15;;;;;;;4.28;3.88;;;29.30;1.00;;;;;;5040203;28;20166;-87
2023/06/25 09:24:44;;;;;;;5.00;4.47;;;29.40;1.00;;;;;;5054140;28;20154;-84
2023/06/25 09:27:10;;;;;;;4.38;3.65;;;29.40;1.00;;;;;;5061437;28;20203;-84
2023/06/25 09:29:37;;;;;;;4.50;3.80;;;29.40;1.00;;;;;;5060510;28;20223;-84
2023/06/25 09:32:08;;;;;;;4.50;3.90;;;29.40;99.90;;;;;;5060384;28;20233;-85
2023/06/25 09:34:41;;;;;;;6.32;4.00;;;29.60;99.90;;;;;;5047420;28;20189;-88
2023/06/25 09:37:31;;;;;;;4.80;3.50;;;29.70;99.90;;;;;;5032670;28;20177;-89
2023/06/25 09:39:58;;;;;;;5.82;3.90;;;29.70;1.00;;;;;;5027238;28;20169;-88
2023/06/25 09:42:24;;;;;;;5.15;3.78;;;29.90;1.00;;;;;;5041218;28;20170;-87
2023/06/25 09:44:51;;;;;;;4.60;3.97;;;29.90;1.00;;;;;;5024677;28;20237;-88
2023/06/25 09:47:19;;;;;;;6.07;4.15;;;30.00;1.00;;;;;;5025258;28;20673;-89
2023/06/25 09:49:46;;;;;;;4.80;4.00;;;30.00;99.90;;;;;;5041001;28;20262;-88
2023/06/25 09:52:14;;;;;;;4.75;3.85;;;30.00;99.90;;;;;;5007483;28;20177;-89
2023/06/25 09:54:41;;;;;;;5.28;3.85;;;30.10;1.00;;;;;;5040827;28;20224;-88
2023/06/25 09:57:14;;;;;;;4.25;3.80;;;30.10;99.90;;;;;;5023494;28;20170;-86
2023/06/25 09:59:41;;;;;;;6.18;4.22;;;30.10;99.90;;;;;;5040550;28;20205;-87
2023/06/25 10:02:07;;;;;;;6.18;4.47;;;30.20;99.90;;;;;;5040720;28;20208;-87
2023/06/25 10:04:34;;;;;;;5.60;3.80;;;30.40;99.90;;;;;;5024814;28;20181;-88
2023/06/25 10:07:01;;;;;;;5.22;4.30;;;30.40;99.90;;;;;;5044733;28;20220;-86
2023/06/25 10:09:27;;;;;;;6.57;4.50;;;30.40;99.90;;;;;;5023882;28;20169;-87
2023/06/25 10:11:56;;;;;;;6.95;4.00;;;30.40;99.90;;;;;;5040603;28;20557;-88
2023/06/25 10:14:22;;;;;;;5.78;4.30;;;30.50;99.90;;;;;;5040315;28;20170;-88
2023/06/25 10:16:53;;;;;;;4.25;3.83;;;30.70;99.90;;;;;;5040381;28;20240;-86
2023/06/25 10:19:23;;;;;;;7.03;4.10;;;30.60;99.90;;;;;;5040195;28;20501;-89
2023/06/25 10:22:16;;;;;;;4.13;3.72;;;30.70;95.90;;;;;;5040466;28;20172;-87
2023/06/25 10:24:46;;;;;;;4.28;3.88;;;30.80;12.40;;;;;;5038682;28;20169;-88
2023/06/25 10:27:21;;;;;;;4.88;4.00;;;31.00;1.00;;;;;;5040395;28;20170;-91
2023/06/25 10:29:48;;;;;;;4.20;3.80;;;30.80;1.00;;;;;;5041351;28;20240;-90
2023/06/25 10:32:21;;;;;;;5.65;3.80;;;30.90;1.00;;;;;;5010298;28;20185;-87
2023/06/25 10:34:53;;;;;;;4.90;3.85;;;30.90;1.00;;;;;;5042351;28;20181;-84
2023/06/25 10:37:19;;;;;;;5.70;3.95;;;30.70;1.00;;;;;;5053619;28;20196;-86
2023/06/25 10:39:46;;;;;;;4.72;4.15;;;30.90;1.00;;;;;;5059512;28;20166;-86
2023/06/25 10:42:13;;;;;;;4.60;3.92;;;31.10;1.00;;;;;;5059505;28;20199;-87
2023/06/25 10:44:39;;;;;;;4.57;4.00;;;31.10;1.00;;;;;;5040962;28;20189;-84
2023/06/25 10:47:09;;;;;;;5.22;4.07;;;31.20;1.00;;;;;;5042238;28;20223;-83
2023/06/25 10:49:36;;;;;;;6.13;5.53;;;31.20;1.00;;;;;;5059940;28;20158;-85
2023/06/25 10:52:10;;;;;;;6.90;5.50;;;31.30;1.00;;;;;;5058676;28;20161;-88
2023/06/25 10:54:39;;;;;;;5.20;4.68;;;31.30;1.00;;;;;;5022663;28;20557;-83
2023/06/25 10:57:08;;;;;;;4.32;3.92;;;31.30;1.00;;;;;;5022056;28;20189;-82
2023/06/25 10:59:35;;;;;;;4.38;3.92;;;31.30;1.00;;;;;;5038603;28;20184;-85
2023/06/25 11:02:20;;;;;;;4.88;4.20;;;31.30;1.00;;;;;;5045707;28;20201;-89
2023/06/25 11:05:11;;;;;;;7.45;4.30;;;31.40;1.00;;;;;;5040518;28;20264;-87
2023/06/25 11:07:53;;;;;;;4.80;4.18;;;31.40;1.00;;;;;;5044360;28;20150;-85
2023/06/25 11:10:25;;;;;;;4.97;4.45;;;31.60;1.00;;;;;;5042164;28;20162;-85
2023/06/25 11:12:51;;;;;;;4.57;3.88;;;31.60;99.90;;;;;;5041806;28;20164;-81
2023/06/25 11:15:18;;;;;;;5.40;4.07;;;31.70;99.90;;;;;;5058732;28;20184;-84
2023/06/25 11:17:45;;;;;;;6.35;4.32;;;31.40;99.90;;;;;;5058526;28;20216;-84
2023/06/25 11:20:16;;;;;;;4.80;4.15;;;31.40;99.90;;;;;;5056466;28;20149;-84
2023/06/25 11:26:06;;;;;;;4.90;4.15;;;31.40;99.90;;;;;;5046324;28;20180;-88
2023/06/25 11:28:38;;;;;;;4.95;4.35;;;31.60;99.90;;;;;;5045440;28;20259;-88
2023/06/25 11:31:04;;;;;;;4.68;4.10;;;31.80;1.00;;;;;;5045127;28;20165;-89
2023/06/25 11:33:31;;;;;;;6.38;3.70;;;31.90;99.90;;;;;;5007409;28;20512;-87
2023/06/25 11:36:12;;;;;;;4.53;4.10;;;31.70;99.90;;;;;;5041306;28;20180;-85
2023/06/25 11:38:44;;;;;;;4.30;3.60;;;31.60;99.90;;;;;;5043341;28;20208;-86
2023/06/25 11:41:10;;;;;;;4.85;3.88;;;31.50;99.90;;;;;;5039996;28;20192;-86
2023/06/25 11:43:36;;;;;;;4.47;4.07;;;31.40;99.90;;;;;;5024140;28;20170;-87
2023/06/25 11:46:05;;;;;;;4.15;3.60;;;31.50;99.90;;;;;;5023355;28;20247;-87
2023/06/25 11:48:33;;;;;;;5.38;3.83;;;31.40;99.90;;;;;;5038007;28;20181;-86
2023/06/25 11:51:05;;;;;;;4.63;3.72;;;31.40;99.90;;;;;;5037734;28;20188;-86
2023/06/25 11:53:32;;;;;;;5.47;3.70;;;31.50;99.90;;;;;;5041589;28;20169;-87
2023/06/25 11:55:59;;;;;;;4.55;3.95;;;31.70;99.90;;;;;;5007816;28;20232;-86
2023/06/25 11:58:25;;;;;;;4.22;3.83;;;31.70;99.90;;;;;;5042905;28;20201;-89
2023/06/25 12:00:52;;;;;;;6.20;4.28;;;31.90;99.90;;;;;;5040651;28;20165;-88
2023/06/25 12:03:18;;;;;;;5.30;4.40;;;31.80;99.90;;;;;;5042696;28;20178;-88
2023/06/25 12:05:48;;;;;;;4.60;4.03;;;31.90;99.90;;;;;;5044225;28;20177;-87
2023/06/25 12:08:14;;;;;;;4.93;3.75;;;32.10;99.90;;;;;;5025104;28;20307;-86
2023/06/25 12:10:40;;;;;;;7.13;4.43;;;32.10;99.90;;;;;;5045086;28;20161;-88
2023/06/25 12:13:05;;;;;;;6.43;4.72;;;32.20;99.90;;;;;;5019937;28;20185;-89
2023/06/25 12:15:31;;;;;;;5.07;3.65;;;32.20;99.90;;;;;;5036556;28;20169;-87
2023/06/25 12:17:57;;;;;;;4.78;4.05;;;32.40;99.90;;;;;;5037075;28;20197;-86
2023/06/25 12:20:22;;;;;;;8.73;3.90;;;32.40;99.90;;;;;;5038318;28;20614;-88
2023/06/25 12:22:48;;;;;;;4.43;3.90;;;32.50;99.90;;;;;;5052862;28;20154;-82
2023/06/25 12:25:14;;;;;;;5.03;3.83;;;32.50;99.90;;;;;;5057872;28;20161;-83
2023/06/25 12:27:40;;;;;;;6.05;4.18;;;32.50;99.90;;;;;;5057718;28;20161;-82
2023/06/25 12:30:07;;;;;;;7.00;4.25;;;32.40;99.90;;;;;;5050761;28;20158;-88
2023/06/25 12:32:39;;;;;;;4.00;3.60;;;32.40;99.90;;;;;;5042483;28;20225;-87
2023/06/25 12:35:05;;;;;;;5.60;3.97;;;32.50;99.90;;;;;;5041107;28;20158;-90
2023/06/25 12:37:31;;;;;;;6.68;4.28;;;32.70;96.20;;;;;;5021408;28;20361;-88
2023/06/25 12:40:00;;;;;;;6.15;4.60;;;32.70;55.70;;;;;;5040433;28;20256;-88
2023/06/25 12:42:26;;;;;;;5.22;4.72;;;32.70;1.00;;;;;;5039163;28;20173;-87
2023/06/25 12:44:53;;;;;;;7.03;4.45;;;32.80;1.00;;;;;;5043705;28;20172;-82
2023/06/25 12:47:20;;;;;;;7.43;4.32;;;32.80;19.30;;;;;;5057828;28;20197;-84